Time;durP1;ratioP1;P1;durP2;ratioP2;P2;SDS_P1;SDS_P2;PMS_P1;PMS_P2;Temp;Humidity;BMP_temperature;BMP_pressure;BME280_temperature;BME280_humidity;BME280_pressure;Samples;Min_cycle;Max_cycle;Signal;HPM_P1;HPM_P2
2023/08/01 00:01:43;;;;;;;6.00;4.57;;;;;;;;;;5026090;28;20504;-82
2023/08/01 00:04:08;;;;;;;6.63;4.32;;;;;;;;;;5007933;28;20473;-81
2023/08/01 00:06:34;;;;;;;6.65;4.30;;;;;;;;;;5011047;28;20037;-81
2023/08/01 00:08:59;;;;;;;6.32;4.22;;;;;;;;;;5008284;28;20101;-81
2023/08/01 00:11:25;;;;;;;8.15;4.68;;;;;;;;;;5010664;28;20432;-82
2023/08/01 00:13:50;;;;;;;8.15;4.43;;;;;;;;;;5010594;28;20520;-81
2023/08/01 00:16:15;;;;;;;6.53;4.47;;;;;;;;;;5009751;28;20034;-81
2023/08/01 00:18:41;;;;;;;6.80;4.47;;;;;;;;;;5009371;28;20041;-81
2023/08/01 00:21:09;;;;;;;7.43;4.28;;;;;;;;;;4996585;28;20037;-81
2023/08/01 00:23:35;;;;;;;7.72;4.60;;;;;;;;;;5014435;28;20087;-81
2023/08/01 00:26:01;;;;;;;6.65;4.40;;;;;;;;;;5013915;28;20485;-82
2023/08/01 00:28:26;;;;;;;8.35;5.00;;;;;;;;;;5013388;28;20029;-82
2023/08/01 00:31:01;;;;;;;6.72;4.88;;;;;;;;;;5012977;28;20030;-82
2023/08/01 00:33:26;;;;;;;6.53;5.00;;;;;;;;;;5014252;28;20381;-82
2023/08/01 00:35:55;;;;;;;7.90;4.93;;;;;;;;;;4993185;28;20085;-82
2023/08/01 00:38:20;;;;;;;9.70;4.68;;;;;;;;;;4993448;28;20070;-82
2023/08/01 00:40:46;;;;;;;6.78;4.32;;;;;;;;;;5012650;28;20071;-82
2023/08/01 00:43:12;;;;;;;7.32;4.68;;;;;;;;;;5014329;28;20103;-82
2023/08/01 00:45:37;;;;;;;8.43;5.07;;;;;;;;;;5012336;28;20030;-82
2023/08/01 00:48:03;;;;;;;6.70;4.82;;;;;;;;;;5014146;28;20121;-82
2023/08/01 00:50:28;;;;;;;5.80;4.70;;;;;;;;;;4995811;28;20113;-82
2023/08/01 00:52:54;;;;;;;7.38;4.90;;;;;;;;;;5011960;28;20034;-82
2023/08/01 00:55:19;;;;;;;6.88;4.80;;;;;;;;;;5012673;28;20437;-82
2023/08/01 00:57:45;;;;;;;8.07;4.45;;;;;;;;;;5013867;28;20041;-82
2023/08/01 01:00:11;;;;;;;5.28;4.50;;;;;;;;;;5012148;28;20025;-82
2023/08/01 01:02:36;;;;;;;5.88;4.78;;;;;;;;;;4996380;28;20046;-82
2023/08/01 01:05:02;;;;;;;8.75;4.30;;;;;;;;;;4995682;28;20072;-82
2023/08/01 01:07:28;;;;;;;8.48;4.60;;;;;;;;;;4993120;28;20070;-82
2023/08/01 01:09:53;;;;;;;7.50;4.30;;;;;;;;;;5012803;28;20542;-82
2023/08/01 01:12:19;;;;;;;6.28;4.53;;;;;;;;;;5013522;28;20108;-82
2023/08/01 01:14:44;;;;;;;7.43;4.97;;;;;;;;;;5012062;28;20545;-82
2023/08/01 01:17:10;;;;;;;7.78;4.85;;;;;;;;;;5008813;28;20038;-82
2023/08/01 01:19:35;;;;;;;5.90;4.43;;;;;;;;;;4994473;28;20030;-82
2023/08/01 01:22:04;;;;;;;7.35;4.63;;;;;;;;;;5013310;28;20053;-82
2023/08/01 01:24:29;;;;;;;7.13;4.40;;;;;;;;;;5011702;28;20033;-82
2023/08/01 01:26:55;;;;;;;7.13;4.53;;;;;;;;;;5012116;28;20084;-82
2023/08/01 01:29:21;;;;;;;5.75;4.30;;;;;;;;;;5011547;28;20539;-82
2023/08/01 01:31:46;;;;;;;6.30;4.57;;;;;;;;;;5011545;28;20172;-82
2023/08/01 01:34:11;;;;;;;6.70;4.38;;;;;;;;;;5012881;28;20040;-82
2023/08/01 01:36:37;;;;;;;5.00;4.03;;;;;;;;;;5028093;28;20045;-82
2023/08/01 01:39:05;;;;;;;5.93;4.40;;;;;;;;;;5011906;28;20013;-82
2023/08/01 01:41:30;;;;;;;5.80;4.28;;;;;;;;;;5011910;28;20541;-81
2023/08/01 01:43:56;;;;;;;5.20;3.90;;;;;;;;;;5011764;28;20022;-82
2023/08/01 01:46:21;;;;;;;8.32;4.80;;;;;;;;;;5028084;28;20040;-82
2023/08/01 01:48:47;;;;;;;6.82;4.32;;;;;;;;;;5011566;28;20043;-82
2023/08/01 01:51:12;;;;;;;6.47;4.40;;;;;;;;;;5012410;28;20092;-82
2023/08/01 01:53:38;;;;;;;7.32;4.63;;;;;;;;;;5012645;28;20029;-82
2023/08/01 01:56:03;;;;;;;7.15;4.68;;;;;;;;;;5011614;28;20065;-82
2023/08/01 01:58:29;;;;;;;7.57;4.43;;;;;;;;;;4991180;28;20109;-82
2023/08/01 02:00:55;;;;;;;6.80;4.50;;;;;;;;;;4987219;28;20041;-81
2023/08/01 02:03:20;;;;;;;8.68;4.97;;;;;;;;;;5010980;28;20045;-82
2023/08/01 02:05:45;;;;;;;7.70;4.82;;;;;;;;;;5012800;28;20045;-82
2023/08/01 02:08:11;;;;;;;8.55;4.55;;;;;;;;;;4994808;28;20022;-82
2023/08/01 02:10:36;;;;;;;5.97;4.63;;;;;;;;;;5011655;28;20038;-82
2023/08/01 02:13:02;;;;;;;6.47;4.60;;;;;;;;;;5010286;28;20081;-81
2023/08/01 02:15:27;;;;;;;5.63;4.07;;;;;;;;;;4994774;28;20524;-82
2023/08/01 02:17:53;;;;;;;6.38;3.97;;;;;;;;;;5011217;28;20040;-82
2023/08/01 02:20:18;;;;;;;7.75;4.13;;;;;;;;;;4991406;28;20035;-81
2023/08/01 02:22:44;;;;;;;8.05;4.10;;;;;;;;;;5010242;28;20488;-82
2023/08/01 02:25:11;;;;;;;5.63;4.15;;;;;;;;;;4994343;28;20133;-82
2023/08/01 02:27:36;;;;;;;6.57;4.40;;;;;;;;;;5011950;28;20037;-82
2023/08/01 02:30:02;;;;;;;6.57;4.32;;;;;;;;;;5011057;28;20037;-82
2023/08/01 02:32:27;;;;;;;7.03;4.20;;;;;;;;;;5010622;28;20025;-82
2023/08/01 02:34:53;;;;;;;6.18;4.53;;;;;;;;;;5012125;28;20500;-82
2023/08/01 02:37:18;;;;;;;7.07;4.10;;;;;;;;;;5011977;28;20048;-82
2023/08/01 02:39:44;;;;;;;7.13;4.03;;;;;;;;;;5027340;28;20034;-83
2023/08/01 02:42:09;;;;;;;7.15;4.22;;;;;;;;;;5010462;28;20168;-82
2023/08/01 02:44:35;;;;;;;6.35;3.90;;;;;;;;;;5010538;28;20098;-82
2023/08/01 02:47:00;;;;;;;7.55;4.00;;;;;;;;;;5010702;28;20079;-82
2023/08/01 02:49:25;;;;;;;6.18;4.40;;;;;;;;;;5011839;28;20044;-82
2023/08/01 02:51:51;;;;;;;6.15;4.00;;;;;;;;;;5010372;28;20028;-81
2023/08/01 02:54:16;;;;;;;6.03;4.40;;;;;;;;;;5010186;28;20026;-82
2023/08/01 02:56:42;;;;;;;5.30;4.20;;;;;;;;;;4993633;28;20117;-82
2023/08/01 02:59:10;;;;;;;5.78;4.03;;;;;;;;;;5010317;28;20084;-82
2023/08/01 03:01:36;;;;;;;8.85;4.30;;;;;;;;;;5010283;28;20028;-82
2023/08/01 03:04:02;;;;;;;5.45;4.47;;;;;;;;;;4978316;28;20551;-81
2023/08/01 03:06:29;;;;;;;7.40;4.13;;;;;;;;;;5009885;28;20029;-82
2023/08/01 03:08:55;;;;;;;9.40;4.10;;;;;;;;;;4993532;28;20029;-82
2023/08/01 03:11:20;;;;;;;10.57;4.43;;;;;;;;;;4993605;28;20085;-83
2023/08/01 03:13:46;;;;;;;7.22;3.90;;;;;;;;;;5010100;28;20050;-83
2023/08/01 03:16:12;;;;;;;6.07;4.30;;;;;;;;;;4993411;28;20064;-82
2023/08/01 03:18:38;;;;;;;6.03;4.30;;;;;;;;;;5010116;28;20045;-83
2023/08/01 03:21:03;;;;;;;7.30;4.10;;;;;;;;;;5010954;28;20055;-82
2023/08/01 03:23:29;;;;;;;8.35;3.90;;;;;;;;;;5011435;28;20037;-82
2023/08/01 03:25:55;;;;;;;5.97;3.92;;;;;;;;;;5009579;28;20100;-82
2023/08/01 03:28:21;;;;;;;6.85;4.20;;;;;;;;;;5010885;28;20104;-82
2023/08/01 03:30:49;;;;;;;6.25;4.28;;;;;;;;;;4991054;28;20026;-82
2023/08/01 03:33:15;;;;;;;7.00;4.20;;;;;;;;;;5003226;28;20084;-83
2023/08/01 03:35:40;;;;;;;8.50;4.30;;;;;;;;;;5011329;28;20128;-83
2023/08/01 03:38:06;;;;;;;6.20;4.07;;;;;;;;;;4998051;28;20936;-81
2023/08/01 03:40:31;;;;;;;7.55;4.72;;;;;;;;;;5010826;28;20176;-81
2023/08/01 03:42:57;;;;;;;7.45;4.22;;;;;;;;;;4990049;28;20035;-81
2023/08/01 03:45:22;;;;;;;8.05;4.80;;;;;;;;;;5009553;28;20037;-81
2023/08/01 03:47:48;;;;;;;8.38;4.57;;;;;;;;;;5010587;28;20382;-81
2023/08/01 03:50:14;;;;;;;6.88;4.65;;;;;;;;;;5025074;28;20029;-81
2023/08/01 03:52:40;;;;;;;7.35;4.60;;;;;;;;;;5026166;28;20033;-81
2023/08/01 03:55:08;;;;;;;7.20;4.93;;;;;;;;;;5011273;28;20049;-81
2023/08/01 03:57:34;;;;;;;10.32;4.90;;;;;;;;;;5013598;28;20477;-81
2023/08/01 04:00:02;;;;;;;6.80;4.70;;;;;;;;;;4997290;28;20381;-81
2023/08/01 04:02:37;;;;;;;7.85;4.50;;;;;;;;;;5006662;28;20052;-81
2023/08/01 04:05:03;;;;;;;5.97;4.70;;;;;;;;;;5012822;28;20152;-82
2023/08/01 04:07:28;;;;;;;7.15;4.35;;;;;;;;;;5013458;28;20049;-81
2023/08/01 04:09:54;;;;;;;9.10;5.00;;;;;;;;;;5014116;28;20017;-81
2023/08/01 04:12:19;;;;;;;7.20;4.90;;;;;;;;;;5014704;28;20057;-81
2023/08/01 04:14:45;;;;;;;8.52;4.25;;;;;;;;;;5014171;28;20045;-82
2023/08/01 04:17:10;;;;;;;10.00;4.72;;;;;;;;;;5013424;28;20044;-83
2023/08/01 04:19:36;;;;;;;6.60;5.30;;;;;;;;;;5012932;28;20045;-82
2023/08/01 04:22:01;;;;;;;8.75;4.72;;;;;;;;;;4997193;28;20092;-82
2023/08/01 04:24:27;;;;;;;11.10;5.13;;;;;;;;;;5012267;28;20666;-82
2023/08/01 04:26:53;;;;;;;6.43;4.70;;;;;;;;;;5013648;28;20037;-81
2023/08/01 04:29:19;;;;;;;8.52;4.32;;;;;;;;;;5011171;28;20661;-81
2023/08/01 04:31:45;;;;;;;5.75;3.75;;;;;;;;;;5011498;28;20034;-81
2023/08/01 04:34:10;;;;;;;5.43;3.70;;;;;;;;;;5012607;28;20037;-82
2023/08/01 04:36:36;;;;;;;5.97;3.75;;;;;;;;;;4996779;28;20509;-83
2023/08/01 04:39:01;;;;;;;9.93;3.95;;;;;;;;;;5013886;28;20060;-82
2023/08/01 04:41:27;;;;;;;7.65;4.00;;;;;;;;;;5011273;28;20064;-81
2023/08/01 04:43:53;;;;;;;7.70;3.83;;;;;;;;;;5009562;28;20040;-84
2023/08/01 04:46:18;;;;;;;9.55;4.20;;;;;;;;;;5012804;28;20124;-84
2023/08/01 04:48:44;;;;;;;7.40;3.88;;;;;;;;;;5012467;28;20017;-84
2023/08/01 04:51:09;;;;;;;7.15;3.72;;;;;;;;;;5012020;28;20659;-81
2023/08/01 04:53:35;;;;;;;11.27;4.45;;;;;;;;;;5009992;28;20117;-82
2023/08/01 04:56:00;;;;;;;8.48;4.30;;;;;;;;;;5005598;28;20034;-84
2023/08/01 04:58:26;;;;;;;5.90;3.45;;;;;;;;;;5013350;28;20484;-82
2023/08/01 05:00:51;;;;;;;8.23;3.67;;;;;;;;;;5014149;28;20449;-82
2023/08/01 05:03:16;;;;;;;8.13;3.75;;;;;;;;;;5013731;28;20065;-84
2023/08/01 05:05:42;;;;;;;7.68;3.78;;;;;;;;;;5013923;28;20068;-84
2023/08/01 05:08:07;;;;;;;5.68;3.70;;;;;;;;;;5012226;28;20053;-84
2023/08/01 05:10:33;;;;;;;11.68;3.50;;;;;;;;;;5012943;28;20464;-84
2023/08/01 05:12:58;;;;;;;7.88;3.78;;;;;;;;;;5011537;28;20058;-84
2023/08/01 05:15:24;;;;;;;9.48;3.70;;;;;;;;;;5012498;28;20526;-82
2023/08/01 05:17:50;;;;;;;10.20;3.20;;;;;;;;;;4992593;28;20046;-84
2023/08/01 05:20:15;;;;;;;6.43;3.47;;;;;;;;;;5023435;28;20087;-82
2023/08/01 05:22:41;;;;;;;7.05;2.97;;;;;;;;;;5013077;28;20041;-82
2023/08/01 05:25:07;;;;;;;8.95;3.00;;;;;;;;;;5012615;28;20038;-82
2023/08/01 05:27:34;;;;;;;7.88;3.30;;;;;;;;;;5008888;28;20184;-82
2023/08/01 05:29:59;;;;;;;6.13;3.13;;;;;;;;;;5012517;28;20033;-82
2023/08/01 05:32:24;;;;;;;8.00;3.13;;;;;;;;;;5012614;28;20025;-83
2023/08/01 05:34:50;;;;;;;6.97;3.10;;;;;;;;;;5025809;28;20038;-82
2023/08/01 05:37:15;;;;;;;9.70;3.10;;;;;;;;;;5012822;28;20037;-83
2023/08/01 05:39:41;;;;;;;5.65;3.00;;;;;;;;;;5012444;28;20029;-82
2023/08/01 05:42:09;;;;;;;5.78;2.80;;;;;;;;;;5012419;28;20040;-83
2023/08/01 05:44:35;;;;;;;7.22;2.92;;;;;;;;;;5009482;28;20445;-82
2023/08/01 05:47:00;;;;;;;5.75;2.78;;;;;;;;;;5008956;28;20061;-83
2023/08/01 05:49:26;;;;;;;5.32;2.88;;;;;;;;;;5011219;28;20022;-82
2023/08/01 05:51:51;;;;;;;4.07;2.42;;;;;;;;;;5009985;28;20037;-82
2023/08/01 05:54:17;;;;;;;3.92;2.42;;;;;;;;;;5012794;28;20026;-82
2023/08/01 05:56:43;;;;;;;5.88;2.70;;;;;;;;;;5011958;28;20131;-82
2023/08/01 05:59:08;;;;;;;6.22;3.22;;;;;;;;;;5012526;28;20489;-83
2023/08/01 06:01:34;;;;;;;4.72;2.65;;;;;;;;;;5012078;28;20037;-83
2023/08/01 06:03:59;;;;;;;9.25;2.50;;;;;;;;;;5027496;28;20030;-83
2023/08/01 06:06:25;;;;;;;5.10;2.60;;;;;;;;;;5011588;28;20045;-82
2023/08/01 06:08:51;;;;;;;4.95;2.47;;;;;;;;;;5012109;28;20087;-83
2023/08/01 06:11:17;;;;;;;4.85;2.20;;;;;;;;;;5010782;28;20034;-83
2023/08/01 06:13:42;;;;;;;7.68;5.25;;;;;;;;;;5010586;28;20058;-83
2023/08/01 06:16:08;;;;;;;4.15;2.72;;;;;;;;;;4993653;28;20041;-83
2023/08/01 06:18:33;;;;;;;6.47;2.65;;;;;;;;;;4993988;28;20608;-82
2023/08/01 06:20:59;;;;;;;3.85;2.40;;;;;;;;;;5010648;28;20128;-82
2023/08/01 06:23:24;;;;;;;5.93;3.22;;;;;;;;;;5011975;28;20034;-84
2023/08/01 06:25:49;;;;;;;7.32;2.80;;;;;;;;;;5010102;28;20041;-83
2023/08/01 06:28:15;;;;;;;3.38;2.30;;;;;;;;;;5011680;28;20021;-83
2023/08/01 06:30:40;;;;;;;6.63;2.38;;;;;;;;;;4993984;28;20029;-84
2023/08/01 06:33:06;;;;;;;10.82;2.40;;;;;;;;;;5010503;28;20026;-82
2023/08/01 06:35:31;;;;;;;4.93;2.47;;;;;;;;;;5004943;28;20417;-82
2023/08/01 06:37:57;;;;;;;6.22;2.53;;;;;;;;;;5009782;28;20038;-83
2023/08/01 06:40:23;;;;;;;5.25;2.88;;;;;;;;;;5011639;28;20049;-83
2023/08/01 06:42:48;;;;;;;6.88;2.53;;;;;;;;;;5009860;28;20092;-83
2023/08/01 06:45:14;;;;;;;8.07;2.80;;;;;;;;;;5019859;28;20046;-83
2023/08/01 06:47:39;;;;;;;8.57;2.50;;;;;;;;;;5009787;28;20117;-83
2023/08/01 06:50:06;;;;;;;6.57;2.47;;;;;;;;;;5009227;28;20053;-83
2023/08/01 06:52:31;;;;;;;6.70;2.42;;;;;;;;;;5026153;28;20024;-83
2023/08/01 06:54:56;;;;;;;8.90;2.15;;;;;;;;;;5026276;28;20041;-83
2023/08/01 06:57:22;;;;;;;5.95;2.45;;;;;;;;;;5000024;28;20400;-84
2023/08/01 06:59:47;;;;;;;8.07;2.60;;;;;;;;;;5009902;28;20037;-83
2023/08/01 07:02:13;;;;;;;4.53;2.42;;;;;;;;;;5010861;28;20069;-82
2023/08/01 07:04:39;;;;;;;4.03;2.40;;;;;;;;;;5010061;28;20045;-82
2023/08/01 07:07:04;;;;;;;4.80;2.35;;;;;;;;;;5004383;28;20495;-83
2023/08/01 07:09:30;;;;;;;3.45;2.45;;;;;;;;;;5010875;28;20034;-83
2023/08/01 07:11:55;;;;;;;6.95;2.60;;;;;;;;;;5010691;28;20084;-81
2023/08/01 07:14:20;;;;;;;7.40;2.50;;;;;;;;;;5010871;28;20038;-82
2023/08/01 07:16:46;;;;;;;6.03;2.70;;;;;;;;;;5009509;28;20034;-83
2023/08/01 07:19:15;;;;;;;4.05;2.28;;;;;;;;;;4993676;28;20030;-83
2023/08/01 07:21:41;;;;;;;5.70;2.28;;;;;;;;;;5010679;28;20037;-83
2023/08/01 07:24:06;;;;;;;8.20;2.42;;;;;;;;;;4992900;28;20034;-83
2023/08/01 07:26:32;;;;;;;4.55;2.10;;;;;;;;;;5009196;28;20029;-84
2023/08/01 07:28:57;;;;;;;5.22;2.60;;;;;;;;;;5008361;28;20040;-83
2023/08/01 07:31:23;;;;;;;2.90;2.00;;;;;;;;;;5009385;28;20026;-83
2023/08/01 07:34:13;;;;;;;5.55;2.00;;;;;;;;;;5011048;28;20044;-83
2023/08/01 07:36:39;;;;;;;5.65;2.08;;;;;;;;;;5025759;28;20042;-83
2023/08/01 07:39:04;;;;;;;3.85;2.13;;;;;;;;;;5010392;28;20112;-84
2023/08/01 07:41:30;;;;;;;2.97;2.03;;;;;;;;;;5025671;28;20041;-83
2023/08/01 07:43:55;;;;;;;4.80;2.20;;;;;;;;;;5010774;28;20026;-85
2023/08/01 07:46:21;;;;;;;4.28;2.10;;;;;;;;;;5010186;28;20606;-82
2023/08/01 07:48:46;;;;;;;7.30;2.00;;;;;;;;;;5010679;28;20485;-83
2023/08/01 07:51:14;;;;;;;6.38;2.42;;;;;;;;;;5022725;28;20033;-86
2023/08/01 07:53:40;;;;;;;3.70;2.20;;;;;;;;;;4997456;28;20125;-83
2023/08/01 07:56:08;;;;;;;3.70;2.40;;;;;;;;;;5025585;28;20113;-83
2023/08/01 07:58:35;;;;;;;4.32;2.30;;;;;;;;;;5008935;28;20551;-82
2023/08/01 08:01:06;;;;;;;5.65;2.03;;;;;;;;;;5010576;28;20040;-84
2023/08/01 08:03:32;;;;;;;5.60;2.08;;;;;;;;;;5025515;28;20034;-84
2023/08/01 08:05:58;;;;;;;3.63;2.50;;;;;;;;;;5010223;28;20048;-84
2023/08/01 08:08:23;;;;;;;3.00;2.17;;;;;;;;;;5009235;28;20120;-83
2023/08/01 08:10:49;;;;;;;3.05;2.20;;;;;;;;;;5009922;28;20040;-83
2023/08/01 08:13:14;;;;;;;4.07;2.10;;;;;;;;;;5010175;28;20053;-83
2023/08/01 08:15:40;;;;;;;4.68;2.08;;;;;;;;;;5009756;28;20052;-83
2023/08/01 08:18:06;;;;;;;3.67;2.05;;;;;;;;;;5008505;28;20038;-84
2023/08/01 08:20:40;;;;;;;3.20;1.95;;;;;;;;;;5001503;28;20036;-84
2023/08/01 08:23:06;;;;;;;4.05;1.90;;;;;;;;;;5008392;28;20038;-83
2023/08/01 08:25:31;;;;;;;2.92;2.15;;;;;;;;;;5010336;28;20428;-84
2023/08/01 08:27:56;;;;;;;2.63;1.85;;;;;;;;;;5025114;28;20042;-83
2023/08/01 08:30:22;;;;;;;3.40;2.00;;;;;;;;;;5010695;28;20089;-84
2023/08/01 08:32:47;;;;;;;4.15;2.25;;;;;;;;;;5009987;28;20169;-83
2023/08/01 08:35:13;;;;;;;4.03;2.15;;;;;;;;;;5009158;28;20026;-84
2023/08/01 08:37:38;;;;;;;2.60;1.90;;;;;;;;;;5008539;28;20419;-84
2023/08/01 08:40:04;;;;;;;4.30;2.33;;;;;;;;;;5010639;28;20075;-84
2023/08/01 08:42:30;;;;;;;6.55;2.20;;;;;;;;;;5013433;28;20412;-83
2023/08/01 08:44:56;;;;;;;4.72;2.20;;;;;;;;;;5013587;28;20025;-83
2023/08/01 08:47:24;;;;;;;4.30;2.40;;;;;;;;;;5013365;28;21084;-84
2023/08/01 08:49:49;;;;;;;4.22;2.35;;;;;;;;;;5013446;28;20091;-83
2023/08/01 08:52:15;;;;;;;3.35;2.20;;;;;;;;;;5011676;28;20037;-83
2023/08/01 08:54:43;;;;;;;2.65;2.00;;;;;;;;;;5013235;28;20507;-84
2023/08/01 08:57:09;;;;;;;3.55;2.05;;;;;;;;;;5008283;28;20030;-83
2023/08/01 08:59:34;;;;;;;3.05;2.20;;;;;;;;;;5013430;28;20044;-83
2023/08/01 09:02:01;;;;;;;2.80;2.03;;;;;;;;;;5013438;28;20382;-83
2023/08/01 09:04:27;;;;;;;4.43;2.53;;;;;;;;;;5011879;28;20447;-83
2023/08/01 09:06:53;;;;;;;4.25;2.20;;;;;;;;;;5012647;28;20030;-83
2023/08/01 09:09:19;;;;;;;3.15;2.10;;;;;;;;;;5013303;28;20481;-84
2023/08/01 09:11:48;;;;;;;3.40;2.10;;;;;;;;;;5012478;28;20028;-83
2023/08/01 09:14:14;;;;;;;4.80;2.20;;;;;;;;;;5000674;28;20037;-84
2023/08/01 09:16:39;;;;;;;4.28;2.22;;;;;;;;;;5028284;28;20038;-84
2023/08/01 09:19:05;;;;;;;3.85;2.17;;;;;;;;;;5011830;28;20419;-82
2023/08/01 09:21:34;;;;;;;4.18;2.13;;;;;;;;;;5011834;28;20462;-84
2023/08/01 09:24:10;;;;;;;2.33;1.80;;;;;;;;;;5011456;28;20025;-84
2023/08/01 09:26:35;;;;;;;;;;;;;;;;;;5013215;28;20049;-83
2023/08/01 09:29:01;;;;;;;5.13;2.40;;;;;;;;;;5006599;28;20369;-84
2023/08/01 09:31:27;;;;;;;3.67;2.30;;;;;;;;;;5006395;28;20038;-83
2023/08/01 09:33:52;;;;;;;3.05;2.58;;;;;;;;;;5011735;28;20473;-83
2023/08/01 09:36:22;;;;;;;3.70;2.40;;;;;;;;;;5012598;28;20084;-83
2023/08/01 09:38:47;;;;;;;3.67;2.33;;;;;;;;;;5002659;28;20034;-83
2023/08/01 09:41:19;;;;;;;4.63;2.38;;;;;;;;;;5027735;28;20564;-84
2023/08/01 09:43:45;;;;;;;3.08;2.05;;;;;;;;;;5007103;28;20040;-84
2023/08/01 09:46:11;;;;;;;4.57;2.60;;;;;;;;;;5003425;28;20396;-84
2023/08/01 09:48:36;;;;;;;3.13;2.13;;;;;;;;;;5027674;28;20037;-83
2023/08/01 09:51:11;;;;;;;5.75;2.13;;;;;;;;;;5011421;28;20053;-84
2023/08/01 09:53:37;;;;;;;;;;;;;;;;;;5011869;28;20033;-84
2023/08/01 09:56:02;;;;;;;;;;;;;;;;;;5012647;28;19909;-84
2023/08/01 09:58:36;;;;;;;5.70;2.10;;;;;;;;;;5012277;28;19964;-84
2023/08/01 10:01:02;;;;;;;5.00;2.40;;;;;;;;;;5008097;28;20413;-84
2023/08/01 10:03:28;;;;;;;3.20;2.30;;;;;;;;;;5006719;28;20053;-84
2023/08/01 10:05:54;;;;;;;4.55;2.63;;;;;;;;;;5010376;28;20029;-84
2023/08/01 10:08:20;;;;;;;3.08;2.50;;;;;;;;;;5027017;28;20049;-84
2023/08/01 10:10:45;;;;;;;4.57;2.70;;;;;;;;;;4990904;28;20060;-84
2023/08/01 10:13:12;;;;;;;3.95;2.40;;;;;;;;;;4992185;28;20489;-83
2023/08/01 10:15:37;;;;;;;5.88;2.67;;;;;;;;;;5027018;28;20042;-84
2023/08/01 10:18:05;;;;;;;6.53;2.80;;;;;;;;;;5010544;28;20026;-84
2023/08/01 10:20:31;;;;;;;3.72;2.80;;;;;;;;;;5011833;28;20417;-83
2023/08/01 10:22:56;;;;;;;6.93;2.70;;;;;;;;;;5011584;28;20026;-84
2023/08/01 10:25:22;;;;;;;5.32;2.70;;;;;;;;;;4994407;28;20125;-84
2023/08/01 10:28:05;;;;;;;3.72;2.90;;;;;;;;;;5009442;28;20084;-84
2023/08/01 10:30:31;;;;;;;4.80;3.63;;;;;;;;;;5010623;28;20053;-85
2023/08/01 10:32:57;;;;;;;5.88;3.00;;;;;;;;;;4993701;28;20018;-84
2023/08/01 10:35:36;;;;;;;7.30;2.85;;;;;;;;;;4994325;28;20067;-83
2023/08/01 10:38:09;;;;;;;6.28;2.47;;;;;;;;;;5016693;28;20155;-84
2023/08/01 10:40:38;;;;;;;4.28;2.60;;;;;;;;;;5009958;28;20575;-85
2023/08/01 10:43:04;;;;;;;4.13;2.53;;;;;;;;;;5008404;28;20453;-84
2023/08/01 10:45:29;;;;;;;3.92;2.70;;;;;;;;;;5010089;28;20121;-83
2023/08/01 10:48:05;;;;;;;4.05;2.28;;;;;;;;;;5010368;28;20029;-84
2023/08/01 10:50:31;;;;;;;6.82;2.90;;;;;;;;;;4990063;28;20042;-85
2023/08/01 10:53:06;;;;;;;4.22;2.65;;;;;;;;;;5009861;28;20033;-84
2023/08/01 10:55:40;;;;;;;4.00;2.67;;;;;;;;;;5009920;28;20132;-84
2023/08/01 10:58:06;;;;;;;6.15;2.60;;;;;;;;;;5011134;28;20037;-83
2023/08/01 11:00:31;;;;;;;4.35;3.00;;;;;;;;;;5011260;28;20033;-84
2023/08/01 11:02:57;;;;;;;6.57;3.08;;;;;;;;;;5008340;28;20038;-83
2023/08/01 11:05:23;;;;;;;9.85;3.00;;;;;;;;;;5010979;28;20029;-84
2023/08/01 11:07:56;;;;;;;4.07;2.78;;;;;;;;;;5010855;28;20037;-83
2023/08/01 11:10:21;;;;;;;4.65;2.72;;;;;;;;;;4998352;28;20111;-83
2023/08/01 11:12:46;;;;;;;5.18;3.08;;;;;;;;;;5011264;28;20489;-83
2023/08/01 11:15:13;;;;;;;3.30;3.00;;;;;;;;;;5011145;28;20526;-82
2023/08/01 11:17:38;;;;;;;3.13;2.70;;;;;;;;;;5011275;28;20083;-83
2023/08/01 11:20:04;;;;;;;6.95;3.17;;;;;;;;;;5025394;28;20029;-83
2023/08/01 11:22:33;;;;;;;5.13;3.40;;;;;;;;;;4993336;28;20036;-83
2023/08/01 11:24:59;;;;;;;4.88;3.45;;;;;;;;;;5006848;28;20076;-83
2023/08/01 11:27:27;;;;;;;5.95;2.95;;;;;;;;;;5009591;28;20062;-84
2023/08/01 11:29:53;;;;;;;6.57;2.80;;;;;;;;;;5008323;28;20026;-85
2023/08/01 11:32:20;;;;;;;6.40;2.85;;;;;;;;;;4993124;28;20500;-83
2023/08/01 11:34:46;;;;;;;4.95;2.60;;;;;;;;;;5010721;28;20129;-85
2023/08/01 11:37:12;;;;;;;5.53;2.50;;;;;;;;;;4993043;28;20524;-83
2023/08/01 11:39:37;;;;;;;3.50;2.42;;;;;;;;;;4992968;28;20053;-84
2023/08/01 11:42:03;;;;;;;5.03;2.47;;;;;;;;;;5010648;28;20022;-85
2023/08/01 11:44:29;;;;;;;2.95;2.40;;;;;;;;;;5009092;28;20038;-83
2023/08/01 11:46:55;;;;;;;3.05;2.75;;;;;;;;;;5009148;28;20037;-84
2023/08/01 11:49:20;;;;;;;5.90;2.40;;;;;;;;;;4992828;28;20409;-85
2023/08/01 11:51:46;;;;;;;3.33;2.90;;;;;;;;;;5009711;28;20091;-84
2023/08/01 11:54:12;;;;;;;4.40;2.65;;;;;;;;;;5010494;28;20484;-85
2023/08/01 11:56:38;;;;;;;4.30;2.22;;;;;;;;;;5010022;28;20073;-84
2023/08/01 11:59:10;;;;;;;6.10;2.60;;;;;;;;;;5025682;28;20041;-84
2023/08/01 12:01:39;;;;;;;3.55;2.40;;;;;;;;;;5006510;28;20092;-83
2023/08/01 12:04:05;;;;;;;3.67;2.67;;;;;;;;;;5009298;28;20456;-84
2023/08/01 12:06:31;;;;;;;3.65;2.65;;;;;;;;;;5008715;28;20033;-84
2023/08/01 12:09:05;;;;;;;3.78;2.30;;;;;;;;;;5008575;28;20034;-84
2023/08/01 12:11:30;;;;;;;5.22;3.60;;;;;;;;;;5008826;28;20030;-84
2023/08/01 12:14:02;;;;;;;7.80;6.00;;;;;;;;;;5001545;28;20060;-84
2023/08/01 12:16:31;;;;;;;5.78;3.53;;;;;;;;;;5012388;28;20531;-83
2023/08/01 12:18:56;;;;;;;4.80;3.13;;;;;;;;;;5014221;28;20022;-83
2023/08/01 12:21:22;;;;;;;2.70;2.40;;;;;;;;;;5014391;28;20502;-85
2023/08/01 12:23:47;;;;;;;4.03;2.90;;;;;;;;;;5013985;28;20152;-83
2023/08/01 12:26:13;;;;;;;5.10;3.00;;;;;;;;;;5012570;28;20092;-84
2023/08/01 12:28:39;;;;;;;3.33;2.20;;;;;;;;;;5014006;28;20026;-84
2023/08/01 12:31:04;;;;;;;4.38;2.50;;;;;;;;;;5014021;28;20026;-84
2023/08/01 12:33:30;;;;;;;6.00;2.38;;;;;;;;;;5014030;28;20457;-85
2023/08/01 12:35:56;;;;;;;3.72;2.55;;;;;;;;;;5028311;28;20513;-84
2023/08/01 12:38:21;;;;;;;3.92;2.60;;;;;;;;;;5006353;28;20049;-85
2023/08/01 12:40:49;;;;;;;3.63;2.53;;;;;;;;;;5013659;28;20040;-84
2023/08/01 12:43:17;;;;;;;3.15;2.63;;;;;;;;;;5003977;28;20025;-84
2023/08/01 12:45:43;;;;;;;4.97;2.70;;;;;;;;;;5013852;28;20038;-84
2023/08/01 12:48:08;;;;;;;5.60;2.78;;;;;;;;;;5013158;28;20067;-84
2023/08/01 12:50:34;;;;;;;4.60;2.45;;;;;;;;;;5012790;28;20038;-84
2023/08/01 12:52:59;;;;;;;4.45;2.47;;;;;;;;;;5012922;28;20041;-83
2023/08/01 12:55:25;;;;;;;5.18;2.40;;;;;;;;;;5012779;28;20045;-83
2023/08/01 12:57:51;;;;;;;5.22;3.03;;;;;;;;;;5011975;28;20117;-83
2023/08/01 13:00:17;;;;;;;5.13;2.90;;;;;;;;;;5012138;28;20080;-85
2023/08/01 13:02:42;;;;;;;5.82;2.33;;;;;;;;;;5013054;28;20053;-84
2023/08/01 13:05:08;;;;;;;3.47;2.42;;;;;;;;;;5013295;28;20038;-83
2023/08/01 13:07:34;;;;;;;3.95;2.28;;;;;;;;;;5013571;28;20487;-84
2023/08/01 13:10:00;;;;;;;3.50;2.42;;;;;;;;;;5011575;28;20026;-85
2023/08/01 13:12:28;;;;;;;7.53;2.47;;;;;;;;;;4995160;28;20561;-84
2023/08/01 13:14:54;;;;;;;7.35;2.22;;;;;;;;;;5012691;28;20152;-84
2023/08/01 13:17:19;;;;;;;3.72;2.35;;;;;;;;;;5011074;28;20057;-83
2023/08/01 13:19:45;;;;;;;3.80;2.20;;;;;;;;;;5011933;28;20044;-85
2023/08/01 13:22:11;;;;;;;3.60;2.20;;;;;;;;;;5011463;28;20033;-83
2023/08/01 13:24:36;;;;;;;5.18;2.35;;;;;;;;;;5011422;28;20353;-84
2023/08/01 13:27:02;;;;;;;5.07;1.95;;;;;;;;;;5011452;28;20033;-84
2023/08/01 13:29:27;;;;;;;3.03;1.80;;;;;;;;;;5011260;28;20034;-83
2023/08/01 13:31:53;;;;;;;2.83;2.00;;;;;;;;;;4995402;28;20026;-83
2023/08/01 13:34:19;;;;;;;2.97;2.30;;;;;;;;;;5012789;28;20557;-84
2023/08/01 13:36:44;;;;;;;4.32;2.00;;;;;;;;;;5012674;28;20045;-84
2023/08/01 13:39:09;;;;;;;3.78;2.20;;;;;;;;;;5011061;28;20030;-83
2023/08/01 13:41:35;;;;;;;3.95;2.20;;;;;;;;;;5008870;28;20068;-84
2023/08/01 13:44:00;;;;;;;4.65;2.60;;;;;;;;;;5005468;28;20040;-84
2023/08/01 13:46:26;;;;;;;3.72;2.17;;;;;;;;;;5012473;28;20038;-83
2023/08/01 13:48:51;;;;;;;3.63;2.42;;;;;;;;;;5011645;28;20077;-84
2023/08/01 13:51:17;;;;;;;2.97;2.17;;;;;;;;;;5012231;28;20460;-83
2023/08/01 13:53:42;;;;;;;3.95;2.25;;;;;;;;;;5010437;28;20036;-83
2023/08/01 13:56:08;;;;;;;4.30;2.33;;;;;;;;;;5010383;28;20034;-83
2023/08/01 13:58:33;;;;;;;2.60;2.15;;;;;;;;;;5001876;28;20227;-83
2023/08/01 14:01:03;;;;;;;3.55;2.50;;;;;;;;;;4992113;28;20045;-84
2023/08/01 14:03:29;;;;;;;6.55;2.40;;;;;;;;;;5023247;28;20168;-83
2023/08/01 14:05:55;;;;;;;3.42;2.90;;;;;;;;;;5012138;28;20053;-83
2023/08/01 14:08:27;;;;;;;8.55;4.72;;;;;;;;;;5010655;28;20026;-83
2023/08/01 14:10:52;;;;;;;4.05;3.20;;;;;;;;;;5010721;28;20053;-83
2023/08/01 14:13:18;;;;;;;5.10;3.40;;;;;;;;;;5011672;28;20058;-84
2023/08/01 14:15:43;;;;;;;6.70;3.00;;;;;;;;;;4993957;28;20037;-85
2023/08/01 14:18:09;;;;;;;6.03;3.17;;;;;;;;;;5010503;28;20042;-84
2023/08/01 14:20:37;;;;;;;4.25;2.83;;;;;;;;;;5011663;28;20044;-83
2023/08/01 14:23:02;;;;;;;3.90;2.80;;;;;;;;;;5010945;28;20033;-83
2023/08/01 14:25:28;;;;;;;4.40;2.60;;;;;;;;;;5011532;28;20045;-84
2023/08/01 14:27:56;;;;;;;6.30;2.72;;;;;;;;;;5010568;28;20481;-82
2023/08/01 14:30:22;;;;;;;3.80;2.50;;;;;;;;;;5009805;28;20112;-83
2023/08/01 14:32:48;;;;;;;4.75;2.90;;;;;;;;;;5026740;28;20125;-84
2023/08/01 14:35:13;;;;;;;3.70;2.20;;;;;;;;;;5012065;28;20038;-84
2023/08/01 14:37:42;;;;;;;4.85;2.15;;;;;;;;;;5015893;28;20038;-82